createdAt,value
2023-10-27T00:00:45.907Z,19.00
2023-10-27T00:04:09.277Z,19.00
2023-10-27T00:07:31.733Z,19.00
2023-10-27T00:10:54.721Z,19.00
2023-10-27T00:14:16.984Z,19.00
2023-10-27T00:17:39.215Z,19.00
2023-10-27T00:21:01.449Z,19.00
2023-10-27T00:24:23.712Z,19.00
2023-10-27T00:27:45.998Z,19.00
2023-10-27T00:31:08.461Z,19.00
2023-10-27T00:34:30.948Z,19.00
2023-10-27T00:37:53.324Z,19.00
2023-10-27T00:41:15.594Z,19.00
2023-10-27T00:44:37.845Z,19.00
2023-10-27T00:48:01.009Z,19.00
2023-10-27T00:51:23.897Z,18.90
2023-10-27T00:54:48.890Z,19.00
2023-10-27T00:58:12.296Z,18.90
2023-10-27T01:01:34.823Z,18.90
2023-10-27T01:04:57.176Z,18.90
2023-10-27T01:08:19.470Z,18.90
2023-10-27T01:11:41.709Z,18.90
2023-10-27T01:15:04.035Z,18.90
2023-10-27T01:18:27.512Z,18.90
2023-10-27T01:21:49.981Z,18.90
2023-10-27T01:25:13.804Z,18.90
2023-10-27T01:28:36.035Z,18.90
2023-10-27T01:31:58.202Z,18.90
2023-10-27T01:35:20.518Z,18.90
2023-10-27T01:38:42.878Z,18.90
2023-10-27T01:42:05.370Z,18.90
2023-10-27T01:45:27.910Z,18.90
2023-10-27T01:48:50.941Z,18.90
2023-10-27T01:52:13.386Z,18.90
2023-10-27T01:55:35.743Z,18.90
2023-10-27T01:58:57.928Z,18.90
2023-10-27T02:02:20.841Z,18.90
2023-10-27T02:05:47.666Z,18.90
2023-10-27T02:09:10.069Z,18.90
2023-10-27T02:12:32.593Z,18.90
2023-10-27T02:15:54.810Z,18.80
2023-10-27T02:19:17.341Z,18.80
2023-10-27T02:22:39.633Z,18.90
2023-10-27T02:26:01.918Z,18.80
2023-10-27T02:29:24.093Z,18.80
2023-10-27T02:32:46.394Z,18.80
2023-10-27T02:36:08.819Z,18.80
2023-10-27T02:39:31.850Z,18.80
2023-10-27T02:42:54.179Z,18.80
2023-10-27T02:46:17.704Z,18.80
2023-10-27T02:49:40.723Z,18.80
2023-10-27T02:53:03.660Z,18.80
2023-10-27T02:56:26.209Z,18.80
2023-10-27T02:59:48.788Z,18.80
2023-10-27T03:03:11.748Z,18.80
2023-10-27T03:06:34.024Z,18.80
2023-10-27T03:09:56.239Z,18.80
2023-10-27T03:13:18.542Z,18.70
2023-10-27T03:16:41.026Z,18.80
2023-10-27T03:20:06.133Z,18.80
2023-10-27T03:23:29.212Z,18.80
2023-10-27T03:26:51.527Z,18.80
2023-10-27T03:30:14.264Z,18.80
2023-10-27T03:33:36.475Z,18.80
2023-10-27T03:36:58.850Z,18.80
2023-10-27T03:40:21.084Z,18.80
2023-10-27T03:43:45.453Z,18.70
2023-10-27T03:47:07.772Z,18.70
2023-10-27T03:50:31.351Z,18.80
2023-10-27T03:53:55.678Z,18.70
2023-10-27T03:57:19.189Z,18.70
2023-10-27T04:00:41.431Z,18.70
2023-10-27T04:04:03.961Z,18.70
2023-10-27T04:07:27.075Z,18.70
2023-10-27T04:10:49.340Z,18.70
2023-10-27T04:14:11.585Z,18.70
2023-10-27T04:17:33.826Z,18.70
2023-10-27T04:20:56.063Z,18.70
2023-10-27T04:24:18.269Z,18.70
2023-10-27T04:27:41.166Z,18.80
2023-10-27T04:31:03.575Z,18.70
2023-10-27T04:34:25.854Z,18.80
2023-10-27T04:37:48.138Z,18.70
2023-10-27T04:41:11.935Z,18.80
2023-10-27T04:44:34.361Z,18.80
2023-10-27T04:47:56.648Z,18.90
2023-10-27T04:51:18.995Z,18.90
2023-10-27T04:54:41.321Z,18.90
2023-10-27T04:58:03.666Z,18.90
2023-10-27T05:01:29.253Z,18.90
2023-10-27T05:04:51.813Z,18.90
2023-10-27T05:08:15.033Z,18.90
2023-10-27T05:11:37.288Z,18.90
2023-10-27T05:14:59.457Z,18.90
2023-10-27T05:18:22.122Z,18.90
2023-10-27T05:21:44.352Z,19.00
2023-10-27T05:25:07.989Z,19.00
2023-10-27T05:28:30.291Z,19.00
2023-10-27T05:31:53.069Z,19.00
2023-10-27T05:35:15.335Z,19.00
2023-10-27T05:38:37.758Z,19.00
2023-10-27T05:41:59.948Z,19.00
2023-10-27T05:45:22.202Z,19.00
2023-10-27T05:48:44.554Z,19.00
2023-10-27T05:52:06.991Z,19.10
2023-10-27T05:55:29.334Z,19.10
2023-10-27T05:58:51.723Z,19.10
2023-10-27T06:02:16.012Z,19.10
2023-10-27T06:05:38.680Z,19.10
2023-10-27T06:09:00.847Z,19.10
2023-10-27T06:12:23.070Z,19.10
2023-10-27T06:15:46.083Z,19.10
2023-10-27T06:19:08.409Z,19.10
2023-10-27T06:22:31.482Z,19.10
2023-10-27T06:25:53.709Z,19.10
2023-10-27T06:29:15.942Z,19.10
2023-10-27T06:32:38.349Z,19.10
2023-10-27T06:36:01.146Z,19.10
2023-10-27T06:39:23.411Z,19.00
2023-10-27T06:42:45.690Z,19.00
2023-10-27T06:46:08.099Z,19.00
2023-10-27T06:49:30.441Z,19.10
2023-10-27T06:52:52.628Z,18.70
2023-10-27T06:56:14.889Z,17.90
2023-10-27T06:59:37.339Z,17.50
2023-10-27T07:02:59.994Z,17.20
2023-10-27T07:06:22.279Z,17.00
2023-10-27T07:09:44.727Z,16.90
2023-10-27T07:13:07.037Z,16.90
2023-10-27T07:16:30.038Z,16.80
2023-10-27T07:19:52.351Z,16.90
2023-10-27T07:23:19.344Z,16.90
2023-10-27T07:26:41.625Z,16.90
2023-10-27T07:30:04.506Z,16.90
2023-10-27T07:33:26.699Z,17.00
2023-10-27T07:36:49.580Z,16.90
2023-10-27T07:40:12.406Z,16.90
2023-10-27T07:43:34.843Z,17.00
2023-10-27T07:46:57.151Z,17.20
2023-10-27T07:50:19.523Z,17.50
2023-10-27T07:53:44.296Z,17.80
2023-10-27T07:57:06.960Z,18.00
2023-10-27T08:00:29.811Z,18.20
2023-10-27T08:03:52.380Z,18.30
2023-10-27T08:07:14.632Z,18.40
2023-10-27T08:10:40.701Z,18.50
2023-10-27T08:14:05.326Z,18.50
2023-10-27T08:17:27.619Z,18.50
2023-10-27T08:20:51.425Z,18.50
2023-10-27T08:24:14.289Z,18.50
2023-10-27T08:27:36.592Z,18.60
2023-10-27T08:30:58.950Z,18.60
2023-10-27T08:34:22.958Z,18.60
2023-10-27T08:37:45.392Z,18.60
2023-10-27T08:41:09.063Z,18.70
2023-10-27T08:44:31.845Z,18.70
2023-10-27T08:47:55.023Z,18.70
2023-10-27T08:51:19.089Z,18.70
2023-10-27T08:54:42.380Z,18.60
2023-10-27T08:58:04.670Z,18.70
2023-10-27T09:01:27.737Z,18.70
2023-10-27T09:04:50.016Z,18.70
2023-10-27T09:08:12.561Z,18.70
2023-10-27T09:11:51.173Z,18.70
2023-10-27T09:15:14.419Z,18.70
2023-10-27T09:18:37.825Z,18.70
2023-10-27T09:22:00.941Z,18.70
2023-10-27T09:25:27.380Z,18.70
2023-10-27T09:29:01.976Z,18.70
2023-10-27T09:32:28.510Z,18.70
2023-10-27T09:35:55.455Z,18.70
2023-10-27T09:39:21.844Z,18.70
2023-10-27T09:42:47.329Z,18.70
2023-10-27T09:46:11.646Z,18.70
2023-10-27T09:49:37.430Z,18.70
2023-10-27T09:53:03.977Z,18.70
2023-10-27T09:56:27.254Z,18.70
2023-10-27T09:59:51.132Z,18.60
2023-10-27T10:03:14.630Z,18.70
2023-10-27T10:06:49.149Z,18.70
2023-10-27T10:10:35.059Z,18.60
2023-10-27T10:13:58.043Z,18.60
2023-10-27T10:17:40.545Z,18.60
2023-10-27T10:21:03.152Z,18.70
2023-10-27T10:24:25.414Z,18.60
2023-10-27T10:28:17.719Z,18.60
2023-10-27T10:31:40.060Z,18.60
2023-10-27T10:35:22.367Z,18.70
2023-10-27T10:39:14.633Z,18.70
2023-10-27T10:43:15.599Z,18.60
2023-10-27T10:46:37.898Z,18.60
2023-10-27T10:50:00.222Z,18.60
2023-10-27T10:53:25.349Z,18.60
2023-10-27T10:56:47.779Z,18.60
2023-10-27T11:00:14.883Z,18.70
2023-10-27T11:03:37.382Z,18.70
2023-10-27T11:07:01.767Z,18.70
2023-10-27T11:10:25.110Z,18.70
2023-10-27T11:13:48.425Z,18.70
2023-10-27T11:17:13.102Z,18.70
2023-10-27T11:20:36.610Z,18.70
2023-10-27T11:23:58.850Z,18.70
2023-10-27T11:27:28.327Z,18.70
2023-10-27T11:31:10.737Z,18.70
2023-10-27T11:34:34.732Z,18.70
2023-10-27T11:38:02.429Z,18.70
2023-10-27T11:41:24.713Z,18.70
2023-10-27T11:44:47.051Z,18.70
2023-10-27T11:48:11.506Z,18.70
2023-10-27T11:51:35.098Z,18.70
2023-10-27T11:54:57.266Z,18.70
2023-10-27T11:58:19.609Z,18.70
2023-10-27T12:01:41.924Z,18.60
2023-10-27T12:05:05.919Z,18.60
2023-10-27T12:08:29.109Z,18.60
2023-10-27T12:11:52.443Z,18.60
2023-10-27T12:15:16.229Z,18.60
2023-10-27T12:18:38.697Z,18.60
2023-10-27T12:22:01.335Z,18.60
2023-10-27T12:25:23.653Z,18.60
2023-10-27T12:28:47.070Z,18.60
2023-10-27T12:32:11.035Z,18.70
2023-10-27T12:35:33.242Z,18.70
2023-10-27T12:38:55.498Z,18.70
2023-10-27T12:42:17.878Z,18.70
2023-10-27T12:45:40.503Z,18.70
2023-10-27T12:49:03.097Z,18.70
2023-10-27T12:52:28.004Z,18.70
2023-10-27T12:55:50.363Z,18.70
2023-10-27T12:59:12.600Z,18.70
2023-10-27T13:02:34.945Z,18.80
2023-10-27T13:05:57.612Z,18.80
2023-10-27T13:09:20.438Z,18.80
2023-10-27T13:12:42.988Z,18.80
2023-10-27T13:16:13.523Z,18.90
2023-10-27T13:19:36.373Z,18.90
2023-10-27T13:22:58.852Z,18.90
2023-10-27T13:26:21.744Z,18.90
2023-10-27T13:29:44.075Z,18.90
2023-10-27T13:33:07.381Z,18.90
2023-10-27T13:36:30.544Z,18.90
2023-10-27T13:39:52.935Z,18.90
2023-10-27T13:43:16.214Z,18.90
2023-10-27T13:46:38.715Z,18.90
2023-10-27T13:50:00.928Z,18.90
2023-10-27T13:53:23.188Z,18.90
2023-10-27T13:56:45.447Z,19.00
2023-10-27T14:00:11.090Z,18.90
2023-10-27T14:03:36.746Z,18.90
2023-10-27T14:06:59.523Z,18.90
2023-10-27T14:10:22.069Z,19.00
2023-10-27T14:13:47.206Z,18.90
2023-10-27T14:17:09.957Z,18.90
2023-10-27T14:20:32.467Z,18.90
2023-10-27T14:23:54.634Z,18.90
2023-10-27T14:27:16.818Z,18.90
2023-10-27T14:30:40.884Z,18.90
2023-10-27T14:34:04.557Z,18.90
2023-10-27T14:37:27.140Z,18.90
2023-10-27T14:40:53.734Z,18.90
2023-10-27T14:44:16.124Z,18.90
2023-10-27T14:47:43.918Z,18.90
2023-10-27T14:51:07.777Z,18.90
2023-10-27T14:54:30.120Z,18.90
2023-10-27T14:57:52.638Z,18.90
2023-10-27T15:01:17.606Z,18.90
2023-10-27T15:04:40.698Z,18.90
2023-10-27T15:08:03.063Z,18.90
2023-10-27T15:11:25.726Z,18.90
2023-10-27T15:14:51.897Z,18.90
2023-10-27T15:18:14.162Z,18.80
2023-10-27T15:21:36.841Z,18.80
2023-10-27T15:24:59.052Z,18.80
2023-10-27T15:28:21.998Z,18.80
2023-10-27T15:31:44.354Z,18.80
2023-10-27T15:35:10.644Z,18.80
2023-10-27T15:38:33.626Z,18.80
2023-10-27T15:41:58.495Z,18.90
2023-10-27T15:45:20.854Z,18.80
2023-10-27T15:48:43.283Z,18.90
2023-10-27T15:52:08.020Z,18.90
2023-10-27T15:55:30.783Z,18.80
2023-10-27T15:58:53.776Z,18.90
2023-10-27T16:02:16.026Z,18.90
2023-10-27T16:05:38.324Z,18.90
2023-10-27T16:09:01.382Z,18.90
2023-10-27T16:12:23.736Z,18.90
2023-10-27T16:15:47.060Z,18.90
2023-10-27T16:19:09.419Z,18.90
2023-10-27T16:22:31.824Z,18.90
2023-10-27T16:25:54.474Z,18.90
2023-10-27T16:29:17.105Z,18.90
2023-10-27T16:32:39.329Z,18.90
2023-10-27T16:36:06.387Z,18.90
2023-10-27T16:39:28.779Z,18.90
2023-10-27T16:42:50.937Z,18.90
2023-10-27T16:46:14.090Z,18.90
2023-10-27T16:49:36.521Z,18.90
2023-10-27T16:53:00.675Z,18.90
2023-10-27T16:56:22.916Z,18.90
2023-10-27T16:59:46.082Z,18.90
2023-10-27T17:03:08.554Z,18.90
2023-10-27T17:06:30.888Z,18.90
2023-10-27T17:09:53.196Z,18.90
2023-10-27T17:13:16.776Z,18.90
2023-10-27T17:16:38.998Z,18.90
2023-10-27T17:20:13.564Z,18.90
2023-10-27T17:23:39.450Z,19.00
2023-10-27T17:27:01.675Z,19.00
2023-10-27T17:30:24.281Z,19.00
2023-10-27T17:33:46.642Z,19.20
2023-10-27T17:37:08.824Z,19.20
2023-10-27T17:40:31.038Z,19.20
2023-10-27T17:43:53.672Z,19.20
2023-10-27T17:47:15.935Z,19.20
2023-10-27T17:50:38.542Z,19.30
2023-10-27T17:54:00.765Z,19.30
2023-10-27T17:57:23.125Z,19.30
2023-10-27T18:00:47.225Z,19.30
2023-10-27T18:04:10.289Z,19.30
2023-10-27T18:07:33.884Z,19.30
2023-10-27T18:10:57.302Z,19.30
2023-10-27T18:14:23.411Z,19.30
2023-10-27T18:17:45.815Z,19.30
2023-10-27T18:21:12.139Z,19.30
2023-10-27T18:24:35.601Z,19.30
2023-10-27T18:27:58.895Z,19.30
2023-10-27T18:31:21.110Z,19.30
2023-10-27T18:34:43.540Z,19.30
2023-10-27T18:38:06.462Z,19.30
2023-10-27T18:41:31.299Z,19.30
2023-10-27T18:44:53.629Z,19.30
2023-10-27T18:48:15.866Z,19.30
2023-10-27T18:51:38.573Z,19.40
2023-10-27T18:55:00.780Z,19.40
2023-10-27T18:58:23.697Z,19.40
2023-10-27T19:01:46.040Z,19.30
2023-10-27T19:05:10.814Z,19.30
2023-10-27T19:08:34.034Z,19.30
2023-10-27T19:11:56.315Z,19.30
2023-10-27T19:15:22.287Z,19.30
2023-10-27T19:18:47.628Z,19.30
2023-10-27T19:22:09.828Z,19.30
2023-10-27T19:25:32.771Z,19.30
2023-10-27T19:28:56.146Z,19.30
2023-10-27T19:32:18.452Z,19.40
2023-10-27T19:35:43.213Z,19.30
2023-10-27T19:39:05.579Z,19.30
2023-10-27T19:42:27.903Z,19.30
2023-10-27T19:45:50.612Z,19.30
2023-10-27T19:49:14.427Z,19.30
2023-10-27T19:52:37.907Z,19.30
2023-10-27T19:56:00.238Z,19.30
2023-10-27T19:59:23.192Z,19.30
2023-10-27T20:02:45.473Z,19.20
2023-10-27T20:06:08.767Z,19.20
2023-10-27T20:09:30.933Z,19.30
2023-10-27T20:12:53.123Z,19.20
2023-10-27T20:16:16.874Z,19.20
2023-10-27T20:19:39.149Z,19.20
2023-10-27T20:23:02.261Z,19.20
2023-10-27T20:26:25.958Z,19.20
2023-10-27T20:29:48.436Z,19.20
2023-10-27T20:33:10.665Z,19.20
2023-10-27T20:36:32.816Z,19.20
2023-10-27T20:39:56.012Z,19.20
2023-10-27T20:43:18.422Z,19.20
2023-10-27T20:46:41.222Z,19.20
2023-10-27T20:50:05.004Z,19.20
2023-10-27T20:53:27.767Z,19.20
2023-10-27T20:56:50.924Z,19.20
2023-10-27T21:00:14.740Z,19.20
2023-10-27T21:03:38.437Z,19.20
2023-10-27T21:07:00.691Z,19.30
2023-10-27T21:10:23.716Z,19.30
2023-10-27T21:13:46.134Z,19.20
2023-10-27T21:17:08.534Z,19.20
2023-10-27T21:20:30.855Z,19.20
2023-10-27T21:23:54.506Z,19.20
2023-10-27T21:27:16.962Z,19.20
2023-10-27T21:30:39.323Z,19.20
2023-10-27T21:34:01.903Z,19.20
2023-10-27T21:37:24.201Z,19.20
2023-10-27T21:40:47.015Z,19.10
2023-10-27T21:44:09.336Z,19.10
2023-10-27T21:47:31.642Z,19.10
2023-10-27T21:51:09.038Z,19.10
2023-10-27T21:54:33.571Z,19.10
2023-10-27T21:57:55.749Z,19.10
2023-10-27T22:01:17.970Z,19.10
2023-10-27T22:04:41.080Z,19.10
2023-10-27T22:08:03.479Z,19.10
2023-10-27T22:11:25.669Z,19.10
2023-10-27T22:14:47.893Z,19.10
2023-10-27T22:18:10.509Z,19.00
2023-10-27T22:21:32.779Z,19.00
2023-10-27T22:24:54.980Z,19.00
2023-10-27T22:28:17.539Z,19.00
2023-10-27T22:31:43.469Z,19.00
2023-10-27T22:35:06.856Z,19.00
2023-10-27T22:38:30.278Z,18.90
2023-10-27T22:41:52.489Z,18.90
2023-10-27T22:45:16.128Z,19.00
2023-10-27T22:48:38.591Z,19.00
2023-10-27T22:52:00.872Z,18.90
2023-10-27T22:55:23.378Z,19.00
2023-10-27T22:58:45.694Z,19.00
2023-10-27T23:02:08.889Z,19.00
2023-10-27T23:05:33.502Z,19.00
2023-10-27T23:12:18.303Z,19.00
2023-10-27T23:15:40.645Z,18.90
2023-10-27T23:19:05.112Z,19.00
2023-10-27T23:22:27.386Z,19.00
2023-10-27T23:25:49.619Z,18.90
2023-10-27T23:29:11.950Z,18.90
2023-10-27T23:32:34.213Z,18.90
2023-10-27T23:36:04.229Z,18.90
2023-10-27T23:39:26.500Z,18.90
2023-10-27T23:42:50.575Z,18.90
2023-10-27T23:46:14.996Z,18.80
2023-10-27T23:49:37.400Z,18.90
2023-10-27T23:52:59.750Z,18.80
2023-10-27T23:56:22.354Z,18.80
2023-10-27T23:59:44.677Z,18.80
